Knin HR Speed Test Log

Averages  Max Speed    
1 to 25 of 145** for City Knin HR
Time
  
  Speed   Provider Size    User ConnectID   TestID  
12/2/19 7:24:02 pm 20.7 Mbps 2.59 MB/sIskon 21.9 MB817673832006 jlzNddG1I 
11/24/19 8:55:42 am 161 kbps 20 kB/sHrvatski 256 kB854153397496 uLw~xyEHM 
11/24/19 8:55:28 am 29.97 Mbps 3.75 MB/sHrvatski 57.5 MB854153397496 hBXH9t~VA 
11/24/19 8:51:19 am 326 kbps 41 kB/sHrvatski 256 kB854153397496 61Xv4dWti 
11/24/19 8:51:12 am 32.96 Mbps 4.12 MB/sHrvatski 53.7 MB854153397496 UaL4rspSJ 
11/24/19 8:48:31 am 155 kbps 19 kB/sHrvatski 256 kB854153397496 f2UOK4I~e 
11/24/19 8:48:16 am 32.64 Mbps 4.08 MB/sHrvatski 63 MB854153397496 GGC~03DjL 
11/24/19 8:46:01 am 81 kbps 10 kB/sHrvatski 256 kB854153397496 XsKKJE74X 
11/24/19 8:45:34 am 34.07 Mbps 4.26 MB/sHrvatski 63.3 MB854153397496 ZhDVBtpam 
11/19/19 7:55:52 pm 34 kbps 4 kB/sOptima 96 kB8180134075633 ZCHyXcWiv 
11/19/19 7:53:57 pm 512 kbps 64 kB/sOptima 480 kB8180134075633 bz1MgKE7- 
11/17/19 6:36:56 pm 26.76 Mbps 3.35 MB/sHrvatski 19.4 MB854153403915 oMMYi9xIw 
11/17/19 6:36:13 pm 1.1 Mbps 138 kB/sHrvatski 2.1 MB854153403915 lQ9O4_tOC 
11/17/19 6:35:21 pm 1.3 Mbps 163 kB/sHrvatski 2.1 MB854153403915 GY6HyXAG8 
11/17/19 6:34:50 pm 485 kbps 61 kB/sHrvatski 480 kB854153403915 crL0h8KRK 
11/17/19 5:40:19 pm 23.8 Mbps 2.97 MB/sHrvatski 34.8 MB854153403915 o82dTS5Mj 
11/17/19 5:39:52 pm 27.89 Mbps 3.49 MB/sHrvatski 34.8 MB854153403915 8CZheAuCK 
11/17/19 5:26:00 pm 36.13 Mbps 4.52 MB/sHrvatski 75.9 MB854153403915 Sbxu1tQtV 
11/13/19 5:58:22 pm 15.24 Mbps 1.9 MB/sHrvatski 7.5 MB854167947573 Q~DlS9rWl 
11/10/19 8:05:22 am 6.7 Mbps 837 kB/sHrvatski 6.8 MB854167951883 rZDRSCaEv 
11/3/19 8:00:31 pm 1.12 Mbps 139 kB/sHrvatski 1.3 MB854153399972 w-C4hVJ50 
11/3/19 8:00:18 pm 19.37 Mbps 2.42 MB/sHrvatski 23.4 MB854153399972 f3lF89nfV 
10/30/19 7:48:46 pm 20.4 Mbps 2.55 MB/sHrvatski 26.2 MB854153398963 zx39wkXba 
10/24/19 7:47:33 pm 7.91 Mbps 989 kB/sOptima 7.2 MB8180134075633 pKhYc9-M3 
10/24/19 7:46:52 pm 35.5 Mbps 4.44 MB/sOptima 56.4 MB8180134075633 jXQV82etl 
  
** Partial Results: The most recent results have been displayed. Results over 50 Mbps are highlighted.
Calculated from graphed results above not entire query.
Displaying Internet Speed Test results for City Knin HR

Minimum

Min 0.49 Mbps : 0.03 Mbps

Average

Avg 21.47 Mbps : 1.29 Mbps

Maximum

Max 36.13 Mbps : 7.91 Mbps

Minimum

Min: 0.49 Mbps : 0.03 Mbps |

Average

Avg: 21.47 Mbps : 1.29 Mbps |

Maximum

Max: 36.13 Mbps : 7.91 Mbps